Time;durP1;ratioP1;P1;durP2;ratioP2;P2;SDS_P1;SDS_P2;PMS_P1;PMS_P2;Temp;Humidity;BMP_temperature;BMP_pressure;BME280_temperature;BME280_humidity;BME280_pressure;Samples;Min_cycle;Max_cycle;Signal;HPM_P1;HPM_P2
2022/11/19 00:01:34;;;;;;;;;;;23.60;59.60;;;;;;1551185;75;635;-59
2022/11/19 00:03:37;;;;;;;;;;;23.60;59.60;;;;;;1555425;75;652;-58
2022/11/19 00:05:39;;;;;;;;;;;23.60;59.60;;;;;;1539948;74;1479;-59
2022/11/19 00:07:41;;;;;;;;;;;23.60;59.60;;;;;;1557681;74;1170;-58
2022/11/19 00:09:43;;;;;;;;;;;23.60;59.60;;;;;;1541254;76;680;-59
2022/11/19 00:14:05;;;;;;;;;;;23.50;59.60;;;;;;1550701;75;1640;-58
2022/11/19 00:16:08;;;;;;;;;;;23.50;59.60;;;;;;1556015;75;671;-59
2022/11/19 00:18:10;;;;;;;;;;;23.50;59.60;;;;;;1562791;75;1951;-60
2022/11/19 00:20:13;;;;;;;;;;;23.50;59.70;;;;;;1549323;75;751;-58
2022/11/19 00:22:15;;;;;;;;;;;23.50;59.70;;;;;;1541575;75;677;-58
2022/11/19 00:24:17;;;;;;;;;;;23.50;59.80;;;;;;1545893;75;644;-58
2022/11/19 00:26:19;;;;;;;;;;;23.40;59.70;;;;;;1554405;75;545;-59
2022/11/19 00:28:20;;;;;;;;;;;23.50;59.80;;;;;;1544726;75;1158;-59
2022/11/19 00:30:22;;;;;;;;;;;23.50;59.80;;;;;;1543921;75;692;-59
2022/11/19 00:32:24;;;;;;;;;;;23.50;59.80;;;;;;1550510;75;694;-59
2022/11/19 00:34:26;;;;;;;;;;;23.60;59.80;;;;;;1543938;75;725;-59
2022/11/19 00:36:28;;;;;;;;;;;23.50;59.70;;;;;;1550828;75;709;-59
2022/11/19 00:38:30;;;;;;;;;;;23.50;59.70;;;;;;1527701;76;1946;-59
2022/11/19 00:40:32;;;;;;;;;;;23.50;59.70;;;;;;1553768;75;663;-59
2022/11/19 00:42:34;;;;;;;;;;;23.40;59.80;;;;;;1532308;76;721;-59
2022/11/19 00:44:36;;;;;;;;;;;23.50;60.00;;;;;;1549589;75;628;-59
2022/11/19 00:46:38;;;;;;;;;;;23.50;59.80;;;;;;1537582;75;743;-59
2022/11/19 00:48:40;;;;;;;;;;;23.50;59.90;;;;;;1533171;75;1127;-58
2022/11/19 00:50:42;;;;;;;;;;;23.50;59.90;;;;;;1545132;75;652;-59
2022/11/19 00:52:43;;;;;;;;;;;23.50;59.90;;;;;;1553532;75;542;-59
2022/11/19 00:54:45;;;;;;;;;;;23.50;59.90;;;;;;1552896;75;654;-58
2022/11/19 00:56:47;;;;;;;;;;;23.40;59.80;;;;;;1552938;75;730;-59
2022/11/19 00:58:49;;;;;;;;;;;23.40;59.80;;;;;;1541761;75;1955;-58
2022/11/19 01:00:51;;;;;;;;;;;23.40;59.90;;;;;;1556530;75;667;-59
2022/11/19 01:02:53;;;;;;;;;;;23.40;60.00;;;;;;1540333;75;1635;-59
2022/11/19 01:04:55;;;;;;;;;;;23.40;59.80;;;;;;1554549;74;664;-58
2022/11/19 01:06:56;;;;;;;;;;;23.50;59.80;;;;;;1558886;75;690;-58
2022/11/19 01:08:58;;;;;;;;;;;23.50;59.60;;;;;;1538392;75;1143;-58
2022/11/19 01:11:13;;;;;;;;;;;23.50;59.70;;;;;;1555307;71;3033;-60
2022/11/19 01:13:33;;;;;;;;;;;23.50;59.60;;;;;;1563723;74;627;-59
2022/11/19 01:15:35;;;;;;;;;;;23.50;59.60;;;;;;1566460;74;617;-59
2022/11/19 01:17:37;;;;;;;;;;;23.50;59.70;;;;;;1577223;74;1148;-59
2022/11/19 01:19:39;;;;;;;;;;;23.50;59.70;;;;;;1565208;74;1938;-59
2022/11/19 01:21:41;;;;;;;;;;;23.50;59.70;;;;;;1574448;74;697;-59
2022/11/19 01:23:43;;;;;;;;;;;23.50;59.70;;;;;;1561850;74;711;-58
2022/11/19 01:25:45;;;;;;;;;;;23.50;59.70;;;;;;1572849;74;804;-58
2022/11/19 01:27:47;;;;;;;;;;;23.50;59.70;;;;;;1574765;74;1119;-58
2022/11/19 01:29:50;;;;;;;;;;;23.40;60.00;;;;;;1579513;74;677;-54
2022/11/19 01:31:52;;;;;;;;;;;23.20;60.40;;;;;;1568452;74;771;-56
2022/11/19 01:33:53;;;;;;;;;;;23.10;60.90;;;;;;1557472;74;755;-58
2022/11/19 01:35:56;;;;;;;;;;;23.10;61.30;;;;;;1565588;74;684;-58
2022/11/19 01:37:59;;;;;;;;;;;23.10;61.30;;;;;;1570491;74;1144;-58
2022/11/19 01:40:01;;;;;;;;;;;23.20;61.20;;;;;;1560893;74;1894;-58
2022/11/19 01:42:03;;;;;;;;;;;23.20;60.90;;;;;;1563677;74;693;-58
2022/11/19 01:44:06;;;;;;;;;;;23.20;61.00;;;;;;1571842;74;671;-58
2022/11/19 01:46:08;;;;;;;;;;;23.20;61.10;;;;;;1576378;74;737;-54
2022/11/19 01:48:11;;;;;;;;;;;23.30;61.20;;;;;;1556301;74;1158;-58
2022/11/19 01:50:13;;;;;;;;;;;23.30;61.10;;;;;;1569606;74;761;-58
2022/11/19 01:52:15;;;;;;;;;;;23.30;61.00;;;;;;1572744;74;700;-58
2022/11/19 01:54:36;;;;;;;;;;;23.30;61.00;;;;;;1556851;74;623;-58
2022/11/19 01:56:38;;;;;;;;;;;23.30;60.90;;;;;;1577304;74;643;-58
2022/11/19 01:58:41;;;;;;;;;;;23.30;60.90;;;;;;1566856;74;1938;-59
2022/11/19 02:00:43;;;;;;;;;;;23.30;61.00;;;;;;1569707;74;717;-58
2022/11/19 02:02:45;;;;;;;;;;;23.30;61.00;;;;;;1577443;74;644;-59
2022/11/19 02:04:47;;;;;;;;;;;23.30;61.00;;;;;;1568704;74;705;-59
2022/11/19 02:06:49;;;;;;;;;;;23.30;60.90;;;;;;1584503;74;691;-59
2022/11/19 02:08:51;;;;;;;;;;;23.30;61.00;;;;;;1572030;74;1152;-57
2022/11/19 02:10:55;;;;;;;;;;;23.30;61.00;;;;;;1570622;74;764;-59
2022/11/19 02:12:59;;;;;;;;;;;23.30;61.00;;;;;;1562311;74;1790;-58
2022/11/19 02:15:02;;;;;;;;;;;23.30;61.20;;;;;;1567944;74;726;-56
2022/11/19 02:17:18;;;;;;;;;;;23.20;61.20;;;;;;1584544;74;637;-57
2022/11/19 02:19:27;;;;;;;;;;;23.20;61.20;;;;;;1570276;74;1946;-56
2022/11/19 02:21:33;;;;;;;;;;;23.20;61.10;;;;;;1566276;74;782;-56
2022/11/19 02:23:55;;;;;;;;;;;23.30;61.00;;;;;;1580081;74;692;-55
2022/11/19 02:25:58;;;;;;;;;;;23.20;61.00;;;;;;1563801;74;654;-59
2022/11/19 02:28:02;;;;;;;;;;;23.20;61.00;;;;;;1580009;74;1162;-58
2022/11/19 02:30:05;;;;;;;;;;;23.20;60.90;;;;;;1567530;74;767;-58
2022/11/19 02:32:12;;;;;;;;;;;23.30;60.80;;;;;;1559029;74;727;-59
2022/11/19 02:34:15;;;;;;;;;;;23.30;60.80;;;;;;1567945;74;747;-58
2022/11/19 02:36:18;;;;;;;;;;;23.30;60.70;;;;;;1567491;74;754;-58
2022/11/19 02:38:22;;;;;;;;;;;23.30;60.60;;;;;;1572910;73;1109;-58
2022/11/19 02:40:31;;;;;;;;;;;23.30;60.60;;;;;;1565430;74;786;-59
2022/11/19 02:42:35;;;;;;;;;;;23.40;60.50;;;;;;1571619;74;771;-59
2022/11/19 02:44:58;;;;;;;;;;;23.40;60.40;;;;;;1585283;74;753;-58
2022/11/19 02:47:01;;;;;;;;;;;23.30;60.50;;;;;;1563654;74;799;-59
2022/11/19 02:49:03;;;;;;;;;;;23.30;60.50;;;;;;1574235;74;1134;-59
2022/11/19 02:51:05;;;;;;;;;;;23.30;60.50;;;;;;1567923;74;757;-58
2022/11/19 02:53:07;;;;;;;;;;;23.40;60.30;;;;;;1569101;74;657;-58
2022/11/19 02:55:13;;;;;;;;;;;23.40;60.10;;;;;;1583283;74;1471;-59
2022/11/19 02:57:15;;;;;;;;;;;23.50;60.10;;;;;;1581632;74;1893;-58
2022/11/19 03:06:20;;;;;;;;;;;23.40;59.80;;;;;;1563876;74;748;-58
2022/11/19 03:08:21;;;;;;;;;;;23.30;59.90;;;;;;1576105;73;1087;-58
2022/11/19 03:10:24;;;;;;;;;;;23.50;60.00;;;;;;1571125;74;680;-57
2022/11/19 03:12:44;;;;;;;;;;;23.50;59.90;;;;;;1570605;74;825;-59
2022/11/19 03:17:15;;;;;;;;;;;23.30;60.30;;;;;;1561749;74;1719;-57
2022/11/19 03:19:35;;;;;;;;;;;23.30;60.50;;;;;;1568380;74;1954;-58
2022/11/19 03:21:45;;;;;;;;;;;23.20;60.60;;;;;;1570080;74;716;-57
2022/11/19 03:23:54;;;;;;;;;;;23.30;60.80;;;;;;1571118;74;723;-57
2022/11/19 03:25:57;;;;;;;;;;;23.20;61.00;;;;;;1568545;74;666;-58
2022/11/19 03:28:00;;;;;;;;;;;23.10;61.40;;;;;;1570343;73;1145;-57
2022/11/19 03:30:03;;;;;;;;;;;23.10;61.60;;;;;;1568089;74;696;-57
2022/11/19 03:32:06;;;;;;;;;;;23.00;61.70;;;;;;1577409;74;787;-58
2022/11/19 03:34:09;;;;;;;;;;;22.90;62.00;;;;;;1567650;74;720;-57
2022/11/19 03:36:13;;;;;;;;;;;23.00;62.20;;;;;;1573981;74;686;-58
2022/11/19 03:38:16;;;;;;;;;;;22.90;62.20;;;;;;1572013;74;1181;-59
2022/11/19 03:40:18;;;;;;;;;;;22.90;62.40;;;;;;1571915;74;1916;-59
2022/11/19 03:42:20;;;;;;;;;;;22.90;62.50;;;;;;1569290;74;661;-58
2022/11/19 03:44:36;;;;;;;;;;;22.90;62.70;;;;;;1574177;74;679;-58
2022/11/19 03:46:38;;;;;;;;;;;22.80;62.60;;;;;;1565798;74;1782;-58
2022/11/19 03:48:39;;;;;;;;;;;22.80;62.70;;;;;;1573730;73;1121;-58
2022/11/19 03:50:52;;;;;;;;;;;22.80;62.70;;;;;;1578707;74;1536;-58
2022/11/19 03:52:54;;;;;;;;;;;22.80;62.80;;;;;;1555258;74;1788;-59
2022/11/19 03:54:56;;;;;;;;;;;22.70;62.90;;;;;;1573986;74;829;-58
2022/11/19 03:56:57;;;;;;;;;;;22.70;63.00;;;;;;1582204;74;600;-59
2022/11/19 03:58:59;;;;;;;;;;;22.70;63.10;;;;;;1568561;74;1947;-58
2022/11/19 04:01:01;;;;;;;;;;;22.70;63.20;;;;;;1584187;74;693;-58
2022/11/19 04:03:03;;;;;;;;;;;22.70;63.10;;;;;;1590498;74;745;-58
2022/11/19 04:05:05;;;;;;;;;;;22.70;63.20;;;;;;1568123;74;1569;-57
2022/11/19 04:07:08;;;;;;;;;;;22.60;63.10;;;;;;1576125;74;736;-59
2022/11/19 04:09:10;;;;;;;;;;;22.60;63.10;;;;;;1580571;73;1105;-58
2022/11/19 04:11:12;;;;;;;;;;;22.70;63.20;;;;;;1571044;74;773;-58
2022/11/19 04:13:13;;;;;;;;;;;22.70;63.30;;;;;;1568151;74;783;-59
2022/11/19 04:15:15;;;;;;;;;;;22.70;63.40;;;;;;1573976;74;589;-59
2022/11/19 04:17:17;;;;;;;;;;;22.70;63.40;;;;;;1578483;74;682;-59
2022/11/19 04:19:19;;;;;;;;;;;22.70;63.40;;;;;;1571162;74;1961;-58
2022/11/19 04:21:21;;;;;;;;;;;22.70;63.50;;;;;;1581548;74;763;-58
2022/11/19 04:23:23;;;;;;;;;;;22.60;63.40;;;;;;1569016;74;683;-58
2022/11/19 04:25:25;;;;;;;;;;;22.60;63.40;;;;;;1571530;74;755;-59
2022/11/19 04:27:27;;;;;;;;;;;22.60;63.40;;;;;;1580633;74;1150;-58
2022/11/19 04:29:29;;;;;;;;;;;22.60;63.30;;;;;;1569474;74;661;-58
2022/11/19 04:31:31;;;;;;;;;;;22.60;63.40;;;;;;1563649;74;683;-59
2022/11/19 04:33:32;;;;;;;;;;;22.60;63.40;;;;;;1570160;74;1348;-59
2022/11/19 04:35:34;;;;;;;;;;;22.60;63.40;;;;;;1571801;74;732;-58
2022/11/19 04:37:36;;;;;;;;;;;22.60;63.40;;;;;;1570860;74;1171;-58
2022/11/19 04:39:38;;;;;;;;;;;22.60;63.50;;;;;;1577469;74;1935;-58
2022/11/19 04:41:40;;;;;;;;;;;22.60;63.60;;;;;;1570098;74;671;-58
2022/11/19 04:43:42;;;;;;;;;;;22.60;63.60;;;;;;1570901;74;790;-59
2022/11/19 04:45:44;;;;;;;;;;;22.70;63.70;;;;;;1563398;74;660;-59
2022/11/19 04:47:46;;;;;;;;;;;22.50;63.70;;;;;;1575041;73;1587;-59
2022/11/19 04:49:47;;;;;;;;;;;22.60;63.80;;;;;;1573942;74;704;-54
2022/11/19 04:51:49;;;;;;;;;;;22.60;63.80;;;;;;1569662;74;732;-58
2022/11/19 04:53:51;;;;;;;;;;;22.60;63.70;;;;;;1568721;74;724;-57
2022/11/19 04:55:53;;;;;;;;;;;22.60;63.80;;;;;;1556408;74;668;-56
2022/11/19 04:57:55;;;;;;;;;;;22.60;63.90;;;;;;1581320;74;1122;-59
2022/11/19 04:59:57;;;;;;;;;;;22.60;64.00;;;;;;1583417;74;1921;-58
2022/11/19 05:01:59;;;;;;;;;;;22.60;64.20;;;;;;1569328;74;1553;-57
2022/11/19 05:04:01;;;;;;;;;;;22.60;64.20;;;;;;1580838;74;676;-58
2022/11/19 05:06:02;;;;;;;;;;;22.60;64.40;;;;;;1579568;74;667;-58
2022/11/19 05:08:05;;;;;;;;;;;22.70;64.60;;;;;;1562368;74;1156;-57
2022/11/19 05:10:07;;;;;;;;;;;22.60;64.60;;;;;;1581788;74;878;-59
2022/11/19 05:12:09;;;;;;;;;;;22.60;64.50;;;;;;1572507;74;830;-59
2022/11/19 05:14:11;;;;;;;;;;;22.60;64.50;;;;;;1570537;74;805;-59
2022/11/19 05:16:13;;;;;;;;;;;22.60;64.60;;;;;;1568737;74;658;-58
2022/11/19 05:18:15;;;;;;;;;;;22.60;64.40;;;;;;1575170;74;1159;-55
2022/11/19 05:20:17;;;;;;;;;;;22.70;64.40;;;;;;1579972;74;1945;-59
2022/11/19 05:22:19;;;;;;;;;;;22.70;64.30;;;;;;1571892;74;698;-59
2022/11/19 05:24:21;;;;;;;;;;;22.70;64.30;;;;;;1569267;74;712;-59
2022/11/19 05:26:22;;;;;;;;;;;22.60;64.20;;;;;;1568060;74;656;-59
2022/11/19 05:28:24;;;;;;;;;;;22.70;64.50;;;;;;1568939;74;1587;-58
2022/11/19 05:30:26;;;;;;;;;;;22.60;64.30;;;;;;1565392;74;684;-59
2022/11/19 05:32:28;;;;;;;;;;;22.60;64.40;;;;;;1574028;74;723;-57
2022/11/19 05:34:30;;;;;;;;;;;22.60;64.40;;;;;;1573606;74;675;-58
2022/11/19 05:36:32;;;;;;;;;;;22.60;64.40;;;;;;1580358;74;760;-59
2022/11/19 05:38:34;;;;;;;;;;;22.70;64.50;;;;;;1570433;74;1158;-59
2022/11/19 05:40:36;;;;;;;;;;;22.70;64.50;;;;;;1575765;74;1914;-60
2022/11/19 05:42:37;;;;;;;;;;;22.70;64.50;;;;;;1569659;74;1579;-59
2022/11/19 05:44:39;;;;;;;;;;;22.60;64.30;;;;;;1561642;74;655;-58
2022/11/19 05:46:41;;;;;;;;;;;22.70;64.30;;;;;;1566237;74;668;-58
2022/11/19 05:48:43;;;;;;;;;;;22.60;64.20;;;;;;1571118;74;1091;-59
2022/11/19 05:50:45;;;;;;;;;;;22.60;64.20;;;;;;1563177;74;662;-59
2022/11/19 05:52:47;;;;;;;;;;;22.70;64.30;;;;;;1564375;74;649;-56
2022/11/19 05:54:49;;;;;;;;;;;22.70;64.20;;;;;;1568447;74;681;-59
2022/11/19 05:56:50;;;;;;;;;;;22.60;64.00;;;;;;1568950;74;1364;-59
2022/11/19 05:58:52;;;;;;;;;;;22.70;64.20;;;;;;1567762;74;1128;-55
2022/11/19 06:00:55;;;;;;;;;;;22.70;64.10;;;;;;1569267;74;1938;-55
2022/11/19 06:02:57;;;;;;;;;;;22.70;64.10;;;;;;1592169;74;637;-59
2022/11/19 06:04:59;;;;;;;;;;;22.60;63.90;;;;;;1570810;74;716;-56
2022/11/19 06:07:00;;;;;;;;;;;22.60;64.10;;;;;;1570828;74;674;-60
2022/11/19 06:09:03;;;;;;;;;;;22.60;64.20;;;;;;1573031;74;1122;-56
2022/11/19 06:11:04;;;;;;;;;;;22.70;64.30;;;;;;1578138;74;1541;-59
2022/11/19 06:13:06;;;;;;;;;;;22.70;64.60;;;;;;1578121;74;767;-59
2022/11/19 06:15:08;;;;;;;;;;;22.60;64.40;;;;;;1569721;74;659;-58
2022/11/19 06:17:10;;;;;;;;;;;22.60;64.50;;;;;;1568768;74;753;-56
2022/11/19 06:19:12;;;;;;;;;;;22.60;64.50;;;;;;1570712;74;1115;-59
2022/11/19 06:21:14;;;;;;;;;;;22.60;64.50;;;;;;1566258;74;1942;-59
2022/11/19 06:23:16;;;;;;;;;;;22.60;64.40;;;;;;1570728;74;746;-57
2022/11/19 06:25:18;;;;;;;;;;;22.60;64.50;;;;;;1571544;74;1606;-57
2022/11/19 06:27:20;;;;;;;;;;;22.60;64.60;;;;;;1564758;74;627;-59
2022/11/19 06:29:22;;;;;;;;;;;22.60;64.70;;;;;;1576761;74;1134;-59
2022/11/19 06:31:24;;;;;;;;;;;22.60;64.60;;;;;;1568431;74;664;-59
2022/11/19 06:33:26;;;;;;;;;;;22.70;64.50;;;;;;1568460;74;721;-59
2022/11/19 06:35:27;;;;;;;;;;;22.60;64.50;;;;;;1577889;74;736;-59
2022/11/19 06:37:29;;;;;;;;;;;22.60;64.50;;;;;;1569960;74;1166;-58
2022/11/19 06:39:31;;;;;;;;;;;22.60;64.40;;;;;;1570152;74;1347;-55
2022/11/19 06:41:33;;;;;;;;;;;22.60;64.40;;;;;;1569213;74;1938;-59
2022/11/19 06:43:35;;;;;;;;;;;22.60;64.30;;;;;;1574214;74;674;-59
2022/11/19 06:45:37;;;;;;;;;;;22.60;64.40;;;;;;1574618;74;658;-59
2022/11/19 06:47:39;;;;;;;;;;;22.60;64.50;;;;;;1577308;73;1183;-54
2022/11/19 06:49:41;;;;;;;;;;;22.60;64.50;;;;;;1575665;74;667;-57
2022/11/19 06:51:43;;;;;;;;;;;22.60;64.50;;;;;;1566481;74;689;-59
2022/11/19 06:53:45;;;;;;;;;;;22.60;64.50;;;;;;1569458;74;1547;-57
2022/11/19 06:55:46;;;;;;;;;;;22.60;64.50;;;;;;1558579;74;782;-55
2022/11/19 06:57:48;;;;;;;;;;;22.70;64.60;;;;;;1553861;74;1184;-59
2022/11/19 06:59:50;;;;;;;;;;;22.60;64.70;;;;;;1565097;74;637;-60
2022/11/19 07:01:52;;;;;;;;;;;22.60;64.60;;;;;;1561702;74;1932;-60
2022/11/19 07:03:54;;;;;;;;;;;22.60;64.70;;;;;;1556670;74;602;-59
2022/11/19 07:05:57;;;;;;;;;;;22.60;64.70;;;;;;1554749;74;665;-59
2022/11/19 07:07:59;;;;;;;;;;;22.60;64.90;;;;;;1560639;74;1843;-58
2022/11/19 07:10:01;;;;;;;;;;;22.60;65.00;;;;;;1557981;74;755;-58
2022/11/19 07:12:03;;;;;;;;;;;22.70;65.00;;;;;;1553016;73;223471;-65
2022/11/19 07:14:05;;;;;;;;;;;22.70;64.90;;;;;;1549206;74;779;-65
2022/11/19 07:16:07;;;;;;;;;;;22.60;64.90;;;;;;1546958;74;699;-65
2022/11/19 07:18:09;;;;;;;;;;;22.70;64.90;;;;;;1554799;74;737;-66
2022/11/19 07:20:11;;;;;;;;;;;22.70;65.10;;;;;;1555015;74;1976;-66
2022/11/19 07:22:13;;;;;;;;;;;22.70;65.30;;;;;;1526368;76;1449;-65
2022/11/19 07:24:15;;;;;;;;;;;22.70;65.60;;;;;;1540688;76;657;-65
2022/11/19 07:26:17;;;;;;;;;;;22.70;66.00;;;;;;1543366;76;645;-66
2022/11/19 07:28:19;;;;;;;;;;;22.70;66.00;;;;;;1522590;76;688;-66
2022/11/19 07:30:21;;;;;;;;;;;22.80;65.80;;;;;;1541378;76;1123;-67
2022/11/19 07:32:23;;;;;;;;;;;22.70;65.50;;;;;;1536297;76;649;-70
2022/11/19 07:34:24;;;;;;;;;;;22.70;65.20;;;;;;1536988;76;664;-68
2022/11/19 07:36:26;;;;;;;;;;;22.80;65.00;;;;;;1544800;76;1482;-68
2022/11/19 07:38:28;;;;;;;;;;;22.80;64.60;;;;;;1533226;76;681;-68
2022/11/19 07:40:32;;;;;;;;;;;22.90;63.90;;;;;;1545890;76;1933;-68
2022/11/19 07:42:48;;;;;;;;;;;23.10;63.30;;;;;;1535353;76;665;-68
2022/11/19 07:44:50;;;;;;;;;;;23.20;62.70;;;;;;1537061;76;581;-71
2022/11/19 07:46:52;;;;;;;;;;;23.20;62.30;;;;;;1530789;77;648;-68
2022/11/19 07:48:54;;;;;;;;;;;23.30;62.10;;;;;;1527499;76;642;-68
2022/11/19 07:50:56;;;;;;;;;;;23.30;61.60;;;;;;1518419;76;1127;-68
2022/11/19 07:52:59;;;;;;;;;;;23.40;61.30;;;;;;1533341;76;637;-69
2022/11/19 07:55:01;;;;;;;;;;;23.50;61.10;;;;;;1530700;76;639;-68
2022/11/19 07:57:02;;;;;;;;;;;23.50;60.90;;;;;;1540343;76;691;-68
2022/11/19 07:59:04;;;;;;;;;;;23.50;60.70;;;;;;1528608;76;779;-68
2022/11/19 08:01:08;;;;;;;;;;;23.50;60.60;;;;;;1536114;76;1941;-68
2022/11/19 08:03:10;;;;;;;;;;;23.50;60.50;;;;;;1533057;76;1521;-68
2022/11/19 08:05:12;;;;;;;;;;;23.50;60.40;;;;;;1541130;76;682;-68
2022/11/19 08:07:14;;;;;;;;;;;23.40;60.20;;;;;;1533714;76;715;-68
2022/11/19 08:09:15;;;;;;;;;;;23.50;60.20;;;;;;1537375;76;670;-68
2022/11/19 08:11:17;;;;;;;;;;;23.50;60.20;;;;;;1532257;75;1119;-68
2022/11/19 08:13:19;;;;;;;;;;;23.50;60.10;;;;;;1543831;76;638;-68
2022/11/19 08:15:21;;;;;;;;;;;23.50;60.10;;;;;;1534414;76;700;-68
2022/11/19 08:19:43;;;;;;;;;;;23.50;60.00;;;;;;1540695;76;1621;-68
2022/11/19 08:21:45;;;;;;;;;;;23.40;60.00;;;;;;1536573;76;1961;-69
2022/11/19 08:23:47;;;;;;;;;;;23.40;59.90;;;;;;1527355;76;694;-67
2022/11/19 08:25:49;;;;;;;;;;;23.50;60.00;;;;;;1522154;76;674;-67
2022/11/19 08:27:51;;;;;;;;;;;23.50;60.00;;;;;;1526512;76;717;-67
2022/11/19 08:29:53;;;;;;;;;;;23.50;60.00;;;;;;1531410;76;745;-68
2022/11/19 08:31:55;;;;;;;;;;;23.50;59.80;;;;;;1536224;76;1508;-68
2022/11/19 08:33:57;;;;;;;;;;;23.50;59.80;;;;;;1546185;76;644;-67
2022/11/19 08:35:59;;;;;;;;;;;23.50;59.80;;;;;;1542765;76;677;-64
2022/11/19 08:38:01;;;;;;;;;;;23.40;59.80;;;;;;1530300;76;651;-63
2022/11/19 08:40:03;;;;;;;;;;;23.30;60.00;;;;;;1530520;76;769;-63
2022/11/19 08:44:24;;;;;;;;;;;23.30;60.10;;;;;;1524627;77;1646;-65
2022/11/19 08:46:26;;;;;;;;;;;23.30;60.10;;;;;;1535994;76;1484;-64
2022/11/19 08:48:28;;;;;;;;;;;23.30;60.10;;;;;;1546318;76;665;-64
2022/11/19 08:50:30;;;;;;;;;;;23.30;60.00;;;;;;1535609;76;1121;-64
2022/11/19 08:52:32;;;;;;;;;;;23.40;59.90;;;;;;1536312;76;673;-64
2022/11/19 08:54:34;;;;;;;;;;;23.30;59.80;;;;;;1523729;76;748;-65
2022/11/19 08:56:36;;;;;;;;;;;23.40;59.80;;;;;;1531699;76;660;-64
2022/11/19 08:58:38;;;;;;;;;;;23.40;59.80;;;;;;1538779;76;633;-65
2022/11/19 09:00:39;;;;;;;;;;;23.50;59.90;;;;;;1545096;74;1941;-64
2022/11/19 09:02:41;;;;;;;;;;;23.50;59.90;;;;;;1534000;76;628;-64
2022/11/19 09:04:43;;;;;;;;;;;23.40;59.70;;;;;;1533425;76;545;-64
2022/11/19 09:06:45;;;;;;;;;;;23.30;59.70;;;;;;1534071;76;704;-64
2022/11/19 09:08:47;;;;;;;;;;;23.40;59.70;;;;;;1529755;76;510;-65
2022/11/19 09:10:49;;;;;;;;;;;23.40;59.70;;;;;;1541355;75;1125;-64
2022/11/19 09:12:52;;;;;;;;;;;23.40;59.70;;;;;;1535480;76;1051;-64
2022/11/19 09:14:53;;;;;;;;;;;23.40;59.70;;;;;;1538949;76;1474;-64
2022/11/19 09:16:55;;;;;;;;;;;23.40;59.70;;;;;;1535450;76;701;-65
2022/11/19 09:18:57;;;;;;;;;;;23.30;59.70;;;;;;1532431;76;703;-62
2022/11/19 09:20:59;;;;;;;;;;;23.40;59.70;;;;;;1535401;76;1953;-65
2022/11/19 09:23:01;;;;;;;;;;;23.40;59.70;;;;;;1531657;76;692;-64
2022/11/19 09:25:03;;;;;;;;;;;23.50;59.80;;;;;;1535308;76;1052;-65
2022/11/19 09:27:05;;;;;;;;;;;23.40;59.70;;;;;;1534820;76;669;-65
2022/11/19 09:29:07;;;;;;;;;;;23.40;59.70;;;;;;1542264;76;1489;-64
2022/11/19 09:31:10;;;;;;;;;;;23.30;59.70;;;;;;1539021;76;1098;-65
2022/11/19 09:33:12;;;;;;;;;;;23.30;59.70;;;;;;1538478;76;1471;-67
2022/11/19 09:35:14;;;;;;;;;;;23.40;59.90;;;;;;1538224;76;684;-67
2022/11/19 09:37:16;;;;;;;;;;;23.30;60.20;;;;;;1533581;76;681;-67
2022/11/19 09:39:18;;;;;;;;;;;23.10;60.60;;;;;;1526641;76;706;-67
2022/11/19 09:41:21;;;;;;;;;;;23.00;60.90;;;;;;1527223;76;1934;-67
2022/11/19 09:43:34;;;;;;;;;;;23.10;61.00;;;;;;1534547;76;1680;-66
2022/11/19 09:45:37;;;;;;;;;;;23.00;60.80;;;;;;1531248;76;1748;-67
2022/11/19 09:47:47;;;;;;;;;;;23.10;60.60;;;;;;1542510;76;674;-65
2022/11/19 09:49:56;;;;;;;;;;;23.20;60.40;;;;;;1536936;76;1894;-66
2022/11/19 09:52:00;;;;;;;;;;;23.20;60.20;;;;;;1528707;76;1378;-66
2022/11/19 09:54:03;;;;;;;;;;;23.30;60.10;;;;;;1536388;76;713;-67
2022/11/19 09:56:05;;;;;;;;;;;23.30;60.00;;;;;;1548812;76;1374;-67
2022/11/19 09:58:08;;;;;;;;;;;23.20;60.00;;;;;;1544111;76;670;-66
2022/11/19 10:00:12;;;;;;;;;;;23.20;59.90;;;;;;1521884;76;1678;-65
2022/11/19 10:02:18;;;;;;;;;;;23.20;59.90;;;;;;1544488;76;1950;-65
2022/11/19 10:04:21;;;;;;;;;;;23.20;59.80;;;;;;1535926;76;1006;-66
2022/11/19 10:06:30;;;;;;;;;;;23.20;59.90;;;;;;1535226;76;1708;-66
2022/11/19 10:08:33;;;;;;;;;;;23.10;60.00;;;;;;1534644;76;746;-66
2022/11/19 10:10:42;;;;;;;;;;;23.10;60.10;;;;;;1532314;76;1512;-66
2022/11/19 10:12:45;;;;;;;;;;;23.10;60.00;;;;;;1542048;76;814;-67
2022/11/19 10:14:51;;;;;;;;;;;23.10;60.00;;;;;;1535843;76;1764;-68
2022/11/19 10:16:55;;;;;;;;;;;23.20;59.90;;;;;;1545612;76;912;-68
2022/11/19 10:19:16;;;;;;;;;;;23.10;60.00;;;;;;1535305;76;1857;-65
2022/11/19 10:21:20;;;;;;;;;;;23.10;60.00;;;;;;1529180;76;1944;-66
2022/11/19 10:23:32;;;;;;;;;;;23.00;60.00;;;;;;1536316;76;1002;-66
2022/11/19 10:25:39;;;;;;;;;;;23.00;60.20;;;;;;1538025;76;1765;-64
2022/11/19 10:27:50;;;;;;;;;;;23.00;60.30;;;;;;1543462;76;787;-66
2022/11/19 10:29:53;;;;;;;;;;;22.90;60.40;;;;;;1523712;76;668;-67
2022/11/19 10:31:57;;;;;;;;;;;22.90;60.40;;;;;;1551282;76;1154;-65
2022/11/19 10:34:12;;;;;;;;;;;22.90;60.60;;;;;;1537954;76;1804;-67
2022/11/19 10:36:25;;;;;;;;;;;22.80;60.70;;;;;;1537794;76;1458;-66
2022/11/19 10:38:28;;;;;;;;;;;22.80;60.80;;;;;;1543246;76;1494;-66
2022/11/19 10:40:32;;;;;;;;;;;22.70;60.90;;;;;;1540252;76;1192;-66
2022/11/19 10:42:35;;;;;;;;;;;22.70;60.90;;;;;;1526479;76;1930;-67
2022/11/19 10:44:40;;;;;;;;;;;22.70;60.90;;;;;;1531232;76;728;-71
2022/11/19 10:46:42;;;;;;;;;;;22.70;61.10;;;;;;1533847;76;739;-67
2022/11/19 10:48:46;;;;;;;;;;;22.70;61.10;;;;;;1534108;76;780;-65
2022/11/19 10:50:48;;;;;;;;;;;22.70;61.00;;;;;;1533977;76;1742;-68
2022/11/19 10:52:51;;;;;;;;;;;22.70;61.00;;;;;;1540981;76;1457;-65
2022/11/19 10:54:55;;;;;;;;;;;22.80;61.00;;;;;;1539175;76;1771;-66
2022/11/19 10:56:57;;;;;;;;;;;22.70;60.90;;;;;;1535472;76;728;-66
2022/11/19 10:59:00;;;;;;;;;;;22.70;60.90;;;;;;1532184;76;648;-66
2022/11/19 11:01:02;;;;;;;;;;;22.60;61.00;;;;;;1538004;76;1133;-66
2022/11/19 11:03:04;;;;;;;;;;;22.70;61.10;;;;;;1532040;76;1943;-66
2022/11/19 11:05:08;;;;;;;;;;;22.60;61.10;;;;;;1526643;76;717;-67
2022/11/19 11:07:10;;;;;;;;;;;22.50;61.20;;;;;;1525671;76;1656;-66
2022/11/19 11:09:13;;;;;;;;;;;22.50;61.30;;;;;;1529181;76;703;-66
2022/11/19 11:16:11;;;;;;;;;;;22.50;61.60;;;;;;1534627;76;1678;-66
2022/11/19 11:18:14;;;;;;;;;;;22.40;61.60;;;;;;1527740;76;677;-67
2022/11/19 11:20:17;;;;;;;;;;;22.50;61.80;;;;;;1531338;76;1466;-66
2022/11/19 11:22:19;;;;;;;;;;;22.40;61.80;;;;;;1532311;76;1917;-66
2022/11/19 11:24:21;;;;;;;;;;;22.40;61.90;;;;;;1536088;76;646;-66
2022/11/19 11:26:24;;;;;;;;;;;22.50;62.00;;;;;;1543821;76;659;-66
2022/11/19 11:28:26;;;;;;;;;;;22.40;61.90;;;;;;1543928;76;677;-66
2022/11/19 11:30:27;;;;;;;;;;;22.40;62.00;;;;;;1534026;76;1127;-67
2022/11/19 11:32:32;;;;;;;;;;;22.40;62.00;;;;;;1528976;76;696;-66
2022/11/19 11:34:38;;;;;;;;;;;22.40;62.00;;;;;;1522530;76;1499;-66
2022/11/19 11:36:40;;;;;;;;;;;22.40;62.00;;;;;;1517025;76;1019;-66
2022/11/19 11:38:45;;;;;;;;;;;22.40;62.10;;;;;;1534638;76;730;-66
2022/11/19 11:41:06;;;;;;;;;;;22.40;62.10;;;;;;1541887;76;1195;-66
2022/11/19 11:43:09;;;;;;;;;;;22.40;62.10;;;;;;1525404;76;1926;-66
2022/11/19 11:45:13;;;;;;;;;;;22.40;62.10;;;;;;1537697;76;1602;-66
2022/11/19 11:47:16;;;;;;;;;;;22.40;62.10;;;;;;1538203;76;1869;-66
2022/11/19 11:49:22;;;;;;;;;;;22.30;62.20;;;;;;1532305;76;1674;-67
2022/11/19 11:51:25;;;;;;;;;;;22.30;62.20;;;;;;1529242;76;1122;-66
2022/11/19 11:53:28;;;;;;;;;;;22.40;62.10;;;;;;1530284;76;1039;-66
2022/11/19 11:55:31;;;;;;;;;;;22.30;62.30;;;;;;1525309;76;648;-66
2022/11/19 11:57:33;;;;;;;;;;;22.30;62.20;;;;;;1535276;76;585;-66
2022/11/19 11:59:35;;;;;;;;;;;22.40;62.30;;;;;;1542773;76;698;-65
2022/11/19 12:01:37;;;;;;;;;;;22.30;62.30;;;;;;1534663;76;1217;-66
2022/11/19 12:03:52;;;;;;;;;;;22.40;62.30;;;;;;1528885;76;1944;-66
2022/11/19 12:06:05;;;;;;;;;;;22.40;62.30;;;;;;1532670;76;770;-66
2022/11/19 12:08:07;;;;;;;;;;;22.30;62.30;;;;;;1523703;76;1407;-66
2022/11/19 12:10:13;;;;;;;;;;;22.30;62.30;;;;;;1536496;76;707;-65
2022/11/19 12:12:32;;;;;;;;;;;22.30;62.30;;;;;;1539194;76;1666;-66
2022/11/19 12:14:36;;;;;;;;;;;22.30;62.30;;;;;;1493931;78;1465;-66
2022/11/19 12:16:51;;;;;;;;;;;22.40;62.30;;;;;;1503734;76;1777;-66
2022/11/19 12:19:11;;;;;;;;;;;22.30;62.10;;;;;;1527943;76;576;-68
2022/11/19 12:21:31;;;;;;;;;;;22.30;62.00;;;;;;1535931;76;1130;-67
2022/11/19 12:23:51;;;;;;;;;;;22.30;62.00;;;;;;1532335;76;1915;-68
2022/11/19 12:25:57;;;;;;;;;;;22.30;62.10;;;;;;1527057;76;709;-65
2022/11/19 12:28:01;;;;;;;;;;;22.30;62.10;;;;;;1543064;76;672;-66
2022/11/19 12:30:09;;;;;;;;;;;22.30;62.20;;;;;;1527928;76;1699;-65
2022/11/19 12:32:15;;;;;;;;;;;22.30;62.30;;;;;;1519388;76;1108;-67
2022/11/19 12:34:19;;;;;;;;;;;22.30;62.30;;;;;;1534929;76;1174;-66
2022/11/19 12:36:22;;;;;;;;;;;22.30;62.40;;;;;;1528511;76;1904;-67
2022/11/19 12:38:25;;;;;;;;;;;22.30;62.50;;;;;;1535130;76;725;-67